Time;durP1;ratioP1;P1;durP2;ratioP2;P2;SDS_P1;SDS_P2;PMS_P1;PMS_P2;Temp;Humidity;BMP_temperature;BMP_pressure;BME280_temperature;BME280_humidity;BME280_pressure;Samples;Min_cycle;Max_cycle;Signal;HPM_P1;HPM_P2
2021/12/13 00:00:30;;;;;;;9.27;2.17;;;12.00;76.90;;;;;;5118247;28;20047;-50
2021/12/13 00:02:59;;;;;;;9.00;1.88;;;12.00;77.10;;;;;;5072673;28;20084;-53
2021/12/13 00:05:34;;;;;;;8.90;1.73;;;12.00;76.90;;;;;;5117939;28;20031;-53
2021/12/13 00:08:06;;;;;;;10.38;2.08;;;11.90;76.80;;;;;;5118401;28;20478;-55
2021/12/13 00:10:56;;;;;;;9.98;2.00;;;11.90;76.90;;;;;;5117700;28;20023;-52
2021/12/13 00:13:27;;;;;;;9.80;1.95;;;11.90;76.90;;;;;;5118243;28;20019;-49
2021/12/13 00:16:00;;;;;;;9.43;1.65;;;12.00;77.00;;;;;;5117248;28;20047;-50
2021/12/13 00:18:37;;;;;;;9.18;2.08;;;12.00;76.80;;;;;;5117643;28;20470;-52
2021/12/13 00:21:15;;;;;;;8.57;1.60;;;11.90;77.00;;;;;;5118092;28;20107;-52
2021/12/13 00:24:09;;;;;;;8.23;2.05;;;11.90;77.00;;;;;;5117996;28;20379;-55
2021/12/13 00:26:38;;;;;;;9.40;1.75;;;11.90;77.00;;;;;;5114888;28;20051;-52
2021/12/13 00:29:17;;;;;;;11.02;1.92;;;11.90;77.00;;;;;;5117813;28;20059;-52
2021/12/13 00:31:47;;;;;;;9.40;1.48;;;12.00;77.00;;;;;;5117921;28;20493;-55
2021/12/13 00:34:32;;;;;;;7.55;1.98;;;11.90;76.80;;;;;;5117948;28;20068;-52
2021/12/13 00:37:11;;;;;;;8.75;2.03;;;11.90;76.70;;;;;;5117859;28;20026;-49
2021/12/13 00:40:04;;;;;;;6.63;1.70;;;11.90;76.90;;;;;;5120274;28;20441;-52
2021/12/13 00:42:40;;;;;;;8.55;2.13;;;11.90;77.10;;;;;;5121343;28;20031;-52
2021/12/13 00:45:10;;;;;;;7.20;1.58;;;11.90;77.00;;;;;;5122143;28;20031;-52
2021/12/13 00:47:38;;;;;;;9.98;1.77;;;11.90;76.90;;;;;;5121913;28;20020;-54
2021/12/13 00:50:25;;;;;;;8.10;1.92;;;11.90;77.00;;;;;;5121706;28;20052;-49
2021/12/13 00:52:54;;;;;;;5.78;1.10;;;11.90;77.00;;;;;;5121980;28;20148;-52
2021/12/13 00:55:21;;;;;;;9.32;1.45;;;11.90;77.10;;;;;;5121645;28;20478;-53
2021/12/13 00:57:53;;;;;;;6.47;1.25;;;11.90;77.30;;;;;;5121391;28;20024;-50
2021/12/13 01:00:25;;;;;;;9.82;2.00;;;11.80;77.20;;;;;;5121920;28;20027;-50
2021/12/13 01:03:11;;;;;;;9.07;1.70;;;11.80;77.10;;;;;;5121584;28;20112;-49
2021/12/13 01:06:17;;;;;;;7.63;2.80;;;11.80;77.00;;;;;;5120939;28;20031;-49
2021/12/13 01:08:43;;;;;;;8.15;1.60;;;11.70;76.90;;;;;;5121375;28;20035;-55
2021/12/13 01:11:52;;;;;;;8.63;1.60;;;11.70;76.90;;;;;;5121155;28;20510;-49
2021/12/13 01:14:35;;;;;;;13.85;1.95;;;11.70;77.20;;;;;;5038918;28;20368;-52
2021/12/13 01:17:16;;;;;;;8.13;1.25;;;11.70;77.60;;;;;;5038120;28;20040;-53
2021/12/13 01:19:59;;;;;;;6.88;1.52;;;11.70;77.50;;;;;;5098745;28;20043;-53
2021/12/13 01:25:48;;;;;;;4.95;1.00;;;11.70;77.00;;;;;;5121032;28;20077;-53
2021/12/13 01:28:20;;;;;;;6.05;1.20;;;11.60;76.90;;;;;;5120732;28;20023;-56
2021/12/13 01:30:55;;;;;;;5.20;1.25;;;11.60;76.80;;;;;;5120637;28;20027;-53
2021/12/13 01:33:24;;;;;;;8.13;1.45;;;11.50;76.70;;;;;;5120860;28;20028;-49
2021/12/13 01:35:54;;;;;;;10.15;1.40;;;11.50;76.70;;;;;;5121023;28;20102;-56
2021/12/13 01:38:32;;;;;;;8.90;1.40;;;11.50;76.90;;;;;;5120764;28;20077;-52
2021/12/13 01:41:08;;;;;;;7.07;1.30;;;11.40;77.00;;;;;;5120687;28;20024;-50
2021/12/13 01:43:38;;;;;;;4.60;1.10;;;11.40;77.10;;;;;;5120844;28;20094;-53
2021/12/13 01:46:03;;;;;;;8.15;1.45;;;11.40;77.00;;;;;;5120635;28;20027;-49
2021/12/13 01:48:36;;;;;;;6.05;1.02;;;11.40;77.30;;;;;;5120465;28;20359;-51
2021/12/13 01:51:07;;;;;;;6.38;1.00;;;11.40;77.30;;;;;;5120086;28;20058;-53
2021/12/13 01:53:47;;;;;;;5.60;1.05;;;11.40;77.40;;;;;;5120181;28;20066;-51
2021/12/13 01:59:05;;;;;;;6.60;1.33;;;11.40;77.50;;;;;;5120169;28;20110;-50
2021/12/13 02:01:32;;;;;;;6.97;1.60;;;11.40;77.50;;;;;;5120317;28;20023;-50
2021/12/13 02:04:05;;;;;;;10.77;2.22;;;11.40;77.60;;;;;;5120360;28;20046;-50
2021/12/13 02:06:55;;;;;;;4.50;0.93;;;11.50;77.70;;;;;;5120404;28;20015;-52
2021/12/13 02:09:29;;;;;;;8.30;1.35;;;11.50;77.50;;;;;;5120063;28;20099;-52
2021/12/13 02:12:00;;;;;;;9.55;1.67;;;11.50;77.60;;;;;;5120578;28;20087;-49
2021/12/13 02:14:29;;;;;;;6.70;1.20;;;11.50;77.60;;;;;;5120055;28;20039;-49
2021/12/13 02:17:10;;;;;;;5.88;1.00;;;11.50;77.40;;;;;;5119955;28;20034;-51
2021/12/13 02:20:05;;;;;;;5.22;0.82;;;11.60;77.20;;;;;;5119975;28;20044;-53
2021/12/13 02:22:44;;;;;;;7.18;1.20;;;11.60;76.90;;;;;;5120074;28;20033;-50
2021/12/13 02:25:39;;;;;;;9.65;1.70;;;11.60;77.00;;;;;;5119828;28;20065;-53
2021/12/13 02:28:10;;;;;;;10.98;2.22;;;11.60;77.10;;;;;;5119134;28;20044;-51
2021/12/13 02:30:47;;;;;;;6.65;1.63;;;11.60;77.20;;;;;;5119725;28;20689;-52
2021/12/13 02:33:17;;;;;;;10.27;1.58;;;11.60;77.20;;;;;;5119674;28;20055;-51
2021/12/13 02:35:52;;;;;;;7.85;1.45;;;11.60;77.20;;;;;;5119564;28;20024;-51
2021/12/13 02:38:19;;;;;;;7.63;1.40;;;11.60;77.20;;;;;;5119730;28;20110;-49
2021/12/13 02:40:46;;;;;;;5.40;1.27;;;11.60;77.20;;;;;;5119507;28;20015;-50
2021/12/13 02:43:17;;;;;;;3.13;0.65;;;11.60;76.90;;;;;;5119850;28;20047;-53
2021/12/13 02:45:47;;;;;;;5.88;1.50;;;11.50;76.80;;;;;;5119700;28;20106;-49
2021/12/13 02:48:31;;;;;;;6.97;1.10;;;11.50;76.90;;;;;;5119370;28;20073;-51
2021/12/13 02:51:10;;;;;;;4.28;0.90;;;11.40;76.80;;;;;;5119304;28;20051;-53
2021/12/13 02:53:42;;;;;;;5.03;1.10;;;11.40;77.20;;;;;;5119221;28;20028;-52
2021/12/13 02:56:08;;;;;;;3.58;0.88;;;11.40;76.70;;;;;;5119211;28;20390;-52
2021/12/13 02:58:35;;;;;;;5.43;0.82;;;11.40;76.80;;;;;;5119094;28;20020;-50
2021/12/13 03:01:16;;;;;;;7.88;1.40;;;11.40;76.80;;;;;;5118492;28;20055;-53
2021/12/13 03:03:46;;;;;;;5.82;0.82;;;11.40;76.70;;;;;;5119064;28;20031;-52
2021/12/13 03:06:16;;;;;;;6.85;1.25;;;11.50;76.60;;;;;;5118942;28;20027;-50
2021/12/13 03:08:54;;;;;;;7.63;1.20;;;11.50;76.20;;;;;;5119212;27;20050;-54
2021/12/13 03:11:27;;;;;;;3.60;0.68;;;11.50;76.10;;;;;;5118965;28;20080;-53
2021/12/13 03:14:00;;;;;;;6.30;0.90;;;11.50;76.00;;;;;;5118829;28;20112;-50
2021/12/13 03:16:41;;;;;;;4.78;0.85;;;11.50;76.00;;;;;;5118519;28;20031;-50
2021/12/13 03:19:25;;;;;;;4.82;0.93;;;11.50;76.10;;;;;;5118556;28;20071;-51
2021/12/13 03:22:32;;;;;;;4.28;0.85;;;11.60;76.20;;;;;;5118753;27;20090;-53
2021/12/13 03:25:09;;;;;;;3.72;1.02;;;11.50;76.40;;;;;;5117435;28;20026;-50
2021/12/13 03:27:48;;;;;;;9.10;1.25;;;11.60;77.10;;;;;;5118819;28;20386;-50
2021/12/13 03:30:20;;;;;;;5.72;1.10;;;11.60;76.70;;;;;;5118746;28;20110;-50
2021/12/13 03:32:58;;;;;;;6.05;1.27;;;11.60;76.90;;;;;;5117016;28;20397;-50
2021/12/13 03:35:37;;;;;;;7.00;0.98;;;11.60;77.20;;;;;;5118956;28;20080;-50
2021/12/13 03:38:09;;;;;;;3.75;0.93;;;11.60;77.20;;;;;;5118723;27;20019;-50
2021/12/13 03:40:36;;;;;;;7.45;1.00;;;11.60;77.30;;;;;;5118605;28;20020;-50
2021/12/13 03:43:12;;;;;;;4.65;0.98;;;11.70;77.30;;;;;;5118544;28;20049;-52
2021/12/13 03:45:49;;;;;;;3.55;0.88;;;11.60;77.40;;;;;;5118363;28;20024;-55
2021/12/13 03:48:18;;;;;;;4.70;1.30;;;11.60;77.80;;;;;;5118471;28;20015;-51
2021/12/13 03:50:48;;;;;;;3.20;0.88;;;11.60;77.90;;;;;;5118210;28;20028;-50
2021/12/13 03:53:21;;;;;;;4.63;1.20;;;11.50;78.40;;;;;;5118461;28;20023;-50
2021/12/13 03:55:52;;;;;;;4.53;1.30;;;11.50;78.60;;;;;;5118376;28;20039;-54
2021/12/13 03:58:21;;;;;;;7.05;1.38;;;11.50;78.40;;;;;;5118515;28;20016;-50
2021/12/13 04:01:01;;;;;;;7.20;1.10;;;11.50;78.70;;;;;;5118316;28;20020;-50
2021/12/13 04:03:28;;;;;;;7.22;1.40;;;11.50;79.20;;;;;;5118273;28;20387;-51
2021/12/13 04:05:55;;;;;;;10.85;1.40;;;11.50;78.50;;;;;;5118181;28;20482;-51
2021/12/13 04:08:22;;;;;;;6.90;1.13;;;11.50;78.40;;;;;;5117827;28;20024;-59
2021/12/13 04:11:03;;;;;;;4.90;1.05;;;11.40;78.30;;;;;;5117978;28;20114;-54
2021/12/13 04:13:37;;;;;;;5.53;1.45;;;11.40;78.00;;;;;;5117787;28;20045;-52
2021/12/13 04:16:28;;;;;;;7.57;1.30;;;11.40;77.90;;;;;;5118083;28;20028;-53
2021/12/13 04:19:06;;;;;;;7.38;1.40;;;11.30;77.90;;;;;;5117511;28;20134;-54
2021/12/13 04:21:41;;;;;;;8.00;1.17;;;11.30;77.80;;;;;;5118094;28;20026;-50
2021/12/13 04:24:12;;;;;;;11.02;1.73;;;11.30;77.50;;;;;;5117764;28;20023;-51
2021/12/13 04:26:46;;;;;;;7.22;1.35;;;11.30;77.40;;;;;;5118267;28;20478;-49
2021/12/13 04:29:26;;;;;;;6.90;1.10;;;11.20;77.30;;;;;;5118023;28;20019;-58
2021/12/13 04:31:53;;;;;;;8.48;1.65;;;11.30;77.50;;;;;;5117626;28;20036;-55
2021/12/13 04:34:25;;;;;;;5.28;1.23;;;11.30;77.60;;;;;;5117954;28;20016;-50
2021/12/13 04:36:53;;;;;;;8.15;1.40;;;11.30;77.40;;;;;;5117660;28;20024;-52
2021/12/13 04:39:29;;;;;;;7.18;1.60;;;11.30;77.60;;;;;;5117768;28;20054;-50
2021/12/13 04:42:00;;;;;;;7.93;1.67;;;11.30;77.00;;;;;;5117702;28;20084;-56
2021/12/13 04:44:34;;;;;;;10.55;1.95;;;11.30;77.60;;;;;;5117640;28;20016;-51
2021/12/13 04:47:15;;;;;;;13.10;2.63;;;11.40;77.90;;;;;;5117573;28;20027;-51
2021/12/13 04:49:46;;;;;;;11.07;2.30;;;11.50;78.00;;;;;;5117876;28;20047;-53
2021/12/13 04:52:16;;;;;;;9.27;2.13;;;11.50;78.10;;;;;;5117797;28;20467;-57
2021/12/13 04:54:49;;;;;;;12.13;2.45;;;11.50;78.00;;;;;;5117323;28;20034;-50
2021/12/13 04:57:17;;;;;;;11.07;2.53;;;11.50;78.20;;;;;;5117882;28;20092;-50
2021/12/13 05:00:08;;;;;;;9.77;1.77;;;11.50;78.30;;;;;;5118025;28;20043;-51
2021/12/13 05:02:33;;;;;;;9.80;2.47;;;11.50;78.10;;;;;;5118008;28;20028;-51
2021/12/13 05:05:04;;;;;;;9.15;2.47;;;11.50;78.00;;;;;;5117484;28;20012;-51
2021/12/13 05:07:31;;;;;;;6.57;1.90;;;11.50;78.00;;;;;;5117644;28;20055;-52
2021/12/13 05:09:58;;;;;;;11.90;2.40;;;11.50;78.00;;;;;;5117455;28;20025;-55
2021/12/13 05:12:28;;;;;;;16.30;2.53;;;11.40;78.10;;;;;;5117622;28;20063;-54
2021/12/13 05:15:03;;;;;;;12.43;2.63;;;11.40;77.90;;;;;;5117629;28;20023;-54
2021/12/13 05:17:42;;;;;;;10.95;2.28;;;11.40;77.70;;;;;;5117315;28;20513;-54
2021/12/13 05:20:29;;;;;;;10.00;1.95;;;11.30;77.80;;;;;;5117134;28;20020;-49
2021/12/13 05:23:09;;;;;;;8.80;1.83;;;11.30;77.90;;;;;;5117316;28;20079;-50
2021/12/13 05:25:52;;;;;;;9.25;2.00;;;11.30;78.00;;;;;;5119443;28;20035;-52
2021/12/13 05:28:25;;;;;;;6.60;1.52;;;11.30;77.70;;;;;;5121187;28;20100;-52
2021/12/13 05:30:57;;;;;;;8.00;1.25;;;11.30;77.50;;;;;;5121042;28;20427;-56
2021/12/13 05:33:26;;;;;;;5.60;1.63;;;11.20;77.30;;;;;;5121032;28;20059;-51
2021/12/13 05:35:55;;;;;;;6.97;1.50;;;11.30;77.60;;;;;;5121303;28;20061;-50
2021/12/13 05:38:27;;;;;;;5.57;1.48;;;11.20;77.80;;;;;;5120695;28;20108;-53
2021/12/13 05:40:53;;;;;;;3.45;1.10;;;11.10;78.10;;;;;;5120894;28;20050;-50
2021/12/13 05:43:33;;;;;;;5.13;1.88;;;11.10;78.20;;;;;;5121114;28;20072;-52
2021/12/13 05:46:07;;;;;;;7.65;1.85;;;11.00;78.50;;;;;;5120828;28;20012;-50
2021/12/13 05:48:35;;;;;;;9.00;1.63;;;11.00;78.60;;;;;;5120679;28;20028;-53
2021/12/13 05:51:05;;;;;;;8.20;1.90;;;10.90;78.60;;;;;;5120540;28;20027;-50
2021/12/13 05:53:36;;;;;;;8.00;1.70;;;10.80;78.10;;;;;;5120640;28;20108;-52
2021/12/13 05:56:14;;;;;;;7.18;1.83;;;10.80;78.20;;;;;;5119702;28;20035;-53
2021/12/13 05:58:52;;;;;;;5.05;1.45;;;10.80;78.00;;;;;;5120051;28;20149;-54
2021/12/13 06:01:31;;;;;;;5.93;1.38;;;10.70;77.70;;;;;;5119976;28;20028;-50
2021/12/13 06:04:06;;;;;;;5.25;2.00;;;10.70;77.40;;;;;;5120271;28;20012;-50
2021/12/13 06:06:41;;;;;;;5.65;1.58;;;10.70;77.30;;;;;;5120404;28;20020;-51
2021/12/13 06:09:07;;;;;;;6.85;2.13;;;10.70;77.10;;;;;;5120586;28;20022;-51
2021/12/13 06:11:34;;;;;;;9.60;2.42;;;10.70;76.90;;;;;;5120531;28;20023;-49
2021/12/13 06:14:21;;;;;;;12.65;1.77;;;10.80;76.90;;;;;;5120276;28;20522;-55
2021/12/13 06:17:05;;;;;;;7.15;1.95;;;10.80;76.90;;;;;;5119920;28;20501;-51
2021/12/13 06:19:40;;;;;;;6.35;1.60;;;10.70;77.00;;;;;;5119763;28;20048;-51
2021/12/13 06:22:11;;;;;;;6.90;1.90;;;10.80;76.80;;;;;;5120130;28;20077;-51
2021/12/13 06:24:44;;;;;;;8.68;1.95;;;10.80;77.20;;;;;;5120009;28;20103;-51
2021/12/13 06:27:15;;;;;;;10.40;2.28;;;10.80;77.20;;;;;;5120218;28;20367;-51
2021/12/13 06:29:52;;;;;;;7.63;2.25;;;10.80;76.80;;;;;;5119875;28;20074;-51
2021/12/13 06:32:21;;;;;;;8.15;1.75;;;10.80;76.30;;;;;;5119814;28;20521;-51
2021/12/13 06:34:47;;;;;;;4.70;1.75;;;10.80;76.10;;;;;;5120051;28;20097;-50
2021/12/13 06:37:13;;;;;;;8.60;1.90;;;10.70;75.90;;;;;;5119472;28;20045;-51
2021/12/13 06:39:39;;;;;;;8.68;1.60;;;10.70;75.60;;;;;;5119522;28;20382;-51
2021/12/13 06:42:06;;;;;;;7.43;1.55;;;10.60;75.20;;;;;;5119391;28;20031;-52
2021/12/13 06:44:43;;;;;;;5.72;1.60;;;10.60;75.70;;;;;;5119634;28;20050;-50
2021/12/13 06:47:12;;;;;;;8.35;1.52;;;10.60;75.90;;;;;;5119426;28;20483;-53
2021/12/13 06:49:40;;;;;;;8.52;1.95;;;10.70;76.10;;;;;;5119354;28;20020;-51
2021/12/13 06:52:19;;;;;;;5.38;1.83;;;10.70;76.60;;;;;;5119342;28;20024;-50
2021/12/13 06:55:08;;;;;;;7.47;1.90;;;10.70;76.70;;;;;;5119547;28;20084;-49
2021/12/13 06:57:35;;;;;;;7.47;1.60;;;10.70;76.80;;;;;;5119070;28;20030;-51
2021/12/13 07:00:11;;;;;;;6.38;1.60;;;10.60;76.90;;;;;;5119193;28;20114;-52
2021/12/13 07:02:59;;;;;;;6.57;1.75;;;10.70;76.90;;;;;;5119041;28;20039;-50
2021/12/13 07:05:39;;;;;;;8.68;1.95;;;10.70;77.00;;;;;;5119151;28;20011;-56
2021/12/13 07:08:08;;;;;;;6.75;1.90;;;10.60;77.00;;;;;;5119138;28;20035;-52
2021/12/13 07:10:41;;;;;;;9.48;2.47;;;10.60;77.00;;;;;;5118936;28;20486;-51
2021/12/13 07:13:27;;;;;;;7.13;2.47;;;10.70;77.10;;;;;;5119028;28;20106;-55
2021/12/13 07:16:12;;;;;;;9.30;2.50;;;10.70;77.20;;;;;;5118515;28;20024;-54
2021/12/13 07:18:45;;;;;;;13.10;3.40;;;10.70;77.10;;;;;;5117335;28;20043;-53
2021/12/13 07:21:22;;;;;;;11.95;3.60;;;10.80;77.10;;;;;;5118612;28;20024;-56
2021/12/13 07:24:05;;;;;;;12.85;3.00;;;10.80;77.20;;;;;;5119153;28;20024;-50
2021/12/13 07:26:32;;;;;;;10.13;2.67;;;10.80;77.40;;;;;;5118708;28;20498;-50
2021/12/13 07:28:59;;;;;;;13.13;3.75;;;10.80;77.30;;;;;;5118600;28;20034;-51
2021/12/13 07:31:26;;;;;;;8.30;2.80;;;10.80;77.20;;;;;;5118732;27;20024;-50
2021/12/13 07:33:52;;;;;;;10.75;2.95;;;10.90;77.10;;;;;;5118605;28;20031;-54
2021/12/13 07:36:27;;;;;;;11.93;2.90;;;10.80;77.10;;;;;;5118175;28;20024;-53
2021/12/13 07:39:00;;;;;;;10.38;2.55;;;10.80;77.20;;;;;;5118334;28;20027;-50
2021/12/13 07:41:42;;;;;;;8.18;2.85;;;10.80;77.20;;;;;;5118180;28;20019;-51
2021/12/13 07:44:12;;;;;;;11.52;3.20;;;10.80;77.10;;;;;;5118295;28;20026;-51
2021/12/13 07:46:38;;;;;;;10.45;2.78;;;10.80;77.20;;;;;;5118770;28;20026;-52
2021/12/13 07:49:10;;;;;;;9.35;3.03;;;10.70;77.20;;;;;;5118017;28;20032;-50
2021/12/13 07:51:46;;;;;;;12.35;3.47;;;10.80;77.10;;;;;;5117890;28;20023;-52
2021/12/13 07:54:18;;;;;;;12.98;3.08;;;10.80;77.20;;;;;;5118426;28;20036;-51
2021/12/13 07:56:56;;;;;;;11.50;3.65;;;10.70;77.10;;;;;;5118216;28;20087;-56
2021/12/13 07:59:22;;;;;;;8.85;2.45;;;10.70;77.10;;;;;;5118347;28;20024;-55
2021/12/13 08:02:08;;;;;;;11.38;2.58;;;10.80;77.10;;;;;;5118196;28;20016;-51
2021/12/13 08:04:36;;;;;;;12.15;2.67;;;10.70;77.10;;;;;;5118063;28;20028;-53
2021/12/13 08:07:15;;;;;;;9.38;2.80;;;10.70;77.10;;;;;;5118299;28;20072;-51
2021/12/13 08:09:52;;;;;;;9.95;2.92;;;10.70;77.10;;;;;;5118206;28;20023;-50
2021/12/13 08:12:23;;;;;;;7.68;2.63;;;10.70;77.50;;;;;;5118295;28;20019;-50
2021/12/13 08:14:55;;;;;;;9.40;3.10;;;10.70;77.10;;;;;;5118084;28;20494;-49
2021/12/13 08:17:25;;;;;;;7.38;2.53;;;10.70;77.00;;;;;;5117794;28;20020;-54
2021/12/13 08:20:00;;;;;;;8.43;2.70;;;10.70;77.00;;;;;;5117878;28;20020;-51
2021/12/13 08:22:29;;;;;;;9.32;2.88;;;10.70;77.10;;;;;;5117620;28;20054;-53
2021/12/13 08:25:02;;;;;;;11.68;3.13;;;10.70;77.00;;;;;;5117998;28;20068;-50
2021/12/13 08:27:35;;;;;;;14.88;2.92;;;10.70;77.00;;;;;;5117560;28;20027;-50
2021/12/13 08:30:14;;;;;;;11.07;2.47;;;10.70;77.00;;;;;;5117522;28;20031;-54
2021/12/13 08:33:15;;;;;;;10.35;2.53;;;10.70;77.00;;;;;;5117908;28;20437;-53
2021/12/13 08:36:15;;;;;;;9.85;2.67;;;10.70;76.90;;;;;;5117239;28;20039;-53
2021/12/13 08:38:47;;;;;;;12.00;2.83;;;10.70;77.00;;;;;;5117667;28;20024;-56
2021/12/13 08:41:15;;;;;;;7.65;2.88;;;10.70;77.00;;;;;;5117653;28;20034;-54
2021/12/13 08:43:43;;;;;;;9.07;2.72;;;10.70;76.90;;;;;;5117671;28;20085;-50
2021/12/13 08:46:12;;;;;;;11.98;2.72;;;10.70;76.90;;;;;;5117630;28;20445;-52
2021/12/13 08:48:48;;;;;;;9.00;2.72;;;10.70;77.00;;;;;;5117945;28;20020;-52
2021/12/13 08:51:24;;;;;;;7.63;2.28;;;10.60;77.00;;;;;;5117558;28;20081;-55
2021/12/13 08:54:05;;;;;;;8.38;2.45;;;10.60;76.80;;;;;;5117762;28;20522;-51
2021/12/13 08:56:35;;;;;;;9.70;2.10;;;10.70;76.90;;;;;;5117894;28;20141;-54
2021/12/13 08:59:10;;;;;;;8.23;2.65;;;10.60;76.80;;;;;;5117464;28;20075;-52
2021/12/13 09:01:50;;;;;;;8.75;2.45;;;10.60;76.90;;;;;;5120177;28;20019;-52
2021/12/13 09:04:37;;;;;;;12.20;2.85;;;10.60;77.10;;;;;;5120510;28;20024;-52
2021/12/13 09:07:07;;;;;;;12.52;2.95;;;10.60;77.10;;;;;;5121312;28;20030;-56
2021/12/13 09:09:34;;;;;;;8.68;2.53;;;10.60;77.10;;;;;;5121524;28;20089;-50
2021/12/13 09:12:07;;;;;;;10.18;2.33;;;10.60;77.10;;;;;;5121198;28;20032;-50
2021/12/13 09:14:38;;;;;;;11.50;2.47;;;10.60;77.00;;;;;;5120379;28;20027;-51
2021/12/13 09:17:26;;;;;;;11.13;2.80;;;10.60;77.10;;;;;;5120536;28;20036;-52
2021/12/13 09:20:00;;;;;;;10.25;2.33;;;10.60;77.00;;;;;;5120828;28;20024;-53
2021/12/13 09:22:36;;;;;;;11.25;2.72;;;10.60;77.00;;;;;;5120982;28;20031;-50
2021/12/13 09:25:08;;;;;;;12.82;2.40;;;10.60;77.00;;;;;;5120940;28;20107;-53
2021/12/13 09:27:45;;;;;;;14.57;2.92;;;10.60;77.00;;;;;;5120924;28;20363;-53
2021/12/13 09:30:33;;;;;;;9.63;2.65;;;10.60;77.10;;;;;;5120577;28;20031;-50
2021/12/13 09:33:06;;;;;;;9.63;2.67;;;10.60;77.10;;;;;;5120929;28;20061;-50
2021/12/13 09:35:43;;;;;;;13.18;2.33;;;10.60;77.20;;;;;;5120487;28;20032;-51
2021/12/13 09:38:44;;;;;;;10.00;2.35;;;10.60;77.20;;;;;;5121052;28;20031;-50
2021/12/13 09:41:15;;;;;;;11.95;2.85;;;10.60;77.20;;;;;;5116724;28;20107;-50
2021/12/13 09:44:10;;;;;;;9.68;2.72;;;10.60;77.70;;;;;;5120707;28;20028;-61
2021/12/13 09:47:01;;;;;;;7.97;2.30;;;10.60;77.20;;;;;;5120725;28;20467;-54
2021/12/13 09:49:45;;;;;;;14.32;2.50;;;10.60;77.10;;;;;;5109458;28;20190;-50
2021/12/13 09:52:25;;;;;;;8.33;2.43;;;10.60;77.10;;;;;;5120370;28;20026;-53
2021/12/13 09:55:12;;;;;;;11.23;3.08;;;10.70;77.20;;;;;;5119585;28;20022;-49
2021/12/13 09:57:50;;;;;;;12.45;3.03;;;10.60;77.20;;;;;;5120484;28;20034;-51
2021/12/13 10:00:19;;;;;;;15.30;3.20;;;10.70;77.40;;;;;;5120323;28;20020;-50
2021/12/13 10:02:50;;;;;;;10.18;2.60;;;10.70;77.40;;;;;;5120210;28;20034;-50
2021/12/13 10:05:20;;;;;;;13.18;2.85;;;10.70;77.40;;;;;;5120331;28;20024;-52
2021/12/13 10:07:51;;;;;;;12.80;3.05;;;10.70;77.40;;;;;;5120412;28;20023;-51
2021/12/13 10:10:26;;;;;;;9.40;2.75;;;10.70;77.30;;;;;;5120026;28;20020;-54
2021/12/13 10:12:57;;;;;;;8.57;2.78;;;10.70;77.20;;;;;;5120221;28;20031;-50
2021/12/13 10:15:29;;;;;;;8.30;2.55;;;10.70;77.30;;;;;;5119862;28;20047;-52
2021/12/13 10:18:02;;;;;;;12.15;2.75;;;10.70;77.10;;;;;;5119807;28;20047;-50
2021/12/13 10:20:36;;;;;;;10.18;2.55;;;10.80;77.10;;;;;;5120157;28;20539;-53
2021/12/13 10:23:03;;;;;;;11.02;2.65;;;10.80;77.20;;;;;;5119918;28;20012;-50
2021/12/13 10:25:39;;;;;;;10.27;2.70;;;10.80;77.30;;;;;;5120044;28;20108;-51
2021/12/13 10:28:10;;;;;;;11.05;2.83;;;10.80;77.30;;;;;;5119422;27;20024;-50
2021/12/13 10:30:41;;;;;;;10.95;3.00;;;10.80;77.30;;;;;;5119658;28;20034;-49
2021/12/13 10:33:08;;;;;;;9.88;2.65;;;10.80;77.20;;;;;;5119811;28;20077;-50
2021/12/13 10:35:40;;;;;;;12.20;2.90;;;10.90;77.20;;;;;;5119111;28;20024;-49
2021/12/13 10:38:17;;;;;;;7.10;2.60;;;10.80;77.20;;;;;;5118655;28;20016;-49
2021/12/13 10:40:56;;;;;;;7.15;2.50;;;10.90;77.20;;;;;;5116533;28;20478;-50
2021/12/13 10:43:26;;;;;;;8.80;2.70;;;10.90;77.20;;;;;;5117802;28;20076;-49
2021/12/13 10:46:04;;;;;;;10.95;2.90;;;10.90;77.10;;;;;;5117588;28;20021;-51
2021/12/13 10:48:32;;;;;;;8.20;2.53;;;10.90;77.10;;;;;;5117816;28;20027;-49
2021/12/13 10:51:10;;;;;;;12.05;2.80;;;10.90;77.10;;;;;;5118622;28;20027;-52
2021/12/13 10:53:38;;;;;;;12.63;3.30;;;10.90;77.20;;;;;;5119192;28;20020;-49
2021/12/13 10:56:12;;;;;;;12.73;3.45;;;10.90;77.10;;;;;;5119659;28;20027;-50
2021/12/13 10:58:43;;;;;;;12.27;3.45;;;10.90;77.10;;;;;;5119773;27;20023;-50
2021/12/13 11:01:16;;;;;;;18.58;3.63;;;10.90;77.00;;;;;;5119757;28;20130;-51
2021/12/13 11:03:42;;;;;;;8.52;3.00;;;10.90;77.10;;;;;;5119684;28;20012;-49
2021/12/13 11:06:11;;;;;;;11.65;2.80;;;10.90;77.00;;;;;;5119479;28;20098;-58
2021/12/13 11:08:44;;;;;;;10.30;2.72;;;10.90;77.00;;;;;;5119576;28;20494;-50
2021/12/13 11:11:26;;;;;;;12.48;2.60;;;11.00;77.00;;;;;;5119815;28;20027;-51
2021/12/13 11:13:57;;;;;;;11.68;3.40;;;11.00;77.10;;;;;;5119495;28;20081;-51
2021/12/13 11:16:34;;;;;;;8.98;3.13;;;11.00;77.00;;;;;;5119513;28;20023;-49
2021/12/13 11:19:04;;;;;;;13.43;3.17;;;11.00;77.10;;;;;;5119197;28;20051;-49
2021/12/13 11:21:36;;;;;;;12.35;3.47;;;11.00;77.00;;;;;;5119042;28;20047;-51
2021/12/13 11:24:04;;;;;;;15.70;4.00;;;11.10;77.00;;;;;;5118667;28;20012;-49
2021/12/13 11:26:36;;;;;;;13.25;4.13;;;11.10;77.00;;;;;;5119021;27;20023;-46
2021/12/13 11:29:04;;;;;;;16.23;5.82;;;11.10;77.10;;;;;;5119017;28;20035;-47
2021/12/13 11:31:30;;;;;;;13.63;5.50;;;11.10;77.00;;;;;;5118960;28;20032;-50
2021/12/13 11:34:03;;;;;;;16.58;5.47;;;11.20;77.10;;;;;;5118887;28;20026;-47
2021/12/13 11:37:00;;;;;;;14.82;4.32;;;11.20;77.10;;;;;;5119051;28;20096;-46
2021/12/13 11:39:59;;;;;;;13.23;4.88;;;11.20;76.90;;;;;;5085734;28;20043;-47
2021/12/13 11:42:39;;;;;;;13.25;3.53;;;11.30;76.90;;;;;;5119021;28;20029;-47
2021/12/13 11:45:35;;;;;;;13.43;4.28;;;11.30;76.90;;;;;;5118736;28;20035;-47
2021/12/13 11:48:17;;;;;;;11.70;3.30;;;11.30;76.80;;;;;;5118868;28;20016;-47
2021/12/13 11:51:05;;;;;;;12.85;3.38;;;11.40;76.80;;;;;;5118701;28;20077;-49
2021/12/13 11:54:03;;;;;;;13.15;3.67;;;11.30;76.80;;;;;;5118818;28;20077;-46
2021/12/13 11:56:53;;;;;;;16.50;3.83;;;11.40;76.90;;;;;;5118317;28;20032;-47
2021/12/13 11:59:28;;;;;;;15.75;4.32;;;11.40;76.90;;;;;;5118720;28;20055;-55
2021/12/13 12:02:31;;;;;;;15.60;3.85;;;11.40;76.80;;;;;;5118519;28;20020;-47
2021/12/13 12:05:31;;;;;;;14.82;3.70;;;11.40;76.80;;;;;;5118599;28;20024;-47
2021/12/13 12:08:25;;;;;;;14.35;3.90;;;11.40;76.60;;;;;;5118728;28;20051;-47
2021/12/13 12:11:12;;;;;;;15.35;3.80;;;11.50;76.50;;;;;;5118581;28;20028;-47
2021/12/13 12:14:06;;;;;;;10.88;3.22;;;11.50;76.40;;;;;;5118426;28;20039;-46
2021/12/13 12:16:45;;;;;;;12.45;2.70;;;11.50;76.20;;;;;;5118145;28;20035;-46
2021/12/13 12:19:16;;;;;;;16.35;3.20;;;11.60;76.20;;;;;;5117954;28;20092;-51
2021/12/13 12:21:57;;;;;;;10.68;3.72;;;11.60;76.00;;;;;;5118360;28;20049;-47
2021/12/13 12:24:33;;;;;;;13.02;3.10;;;11.60;75.80;;;;;;5117977;28;20107;-46
2021/12/13 12:27:09;;;;;;;10.25;3.03;;;11.50;75.00;;;;;;5118059;28;20034;-46
2021/12/13 12:29:41;;;;;;;12.55;3.17;;;11.50;75.00;;;;;;5117982;28;20028;-46
2021/12/13 12:32:12;;;;;;;13.32;3.35;;;11.50;75.20;;;;;;5118393;28;20015;-46
2021/12/13 12:34:58;;;;;;;15.88;3.75;;;11.50;75.30;;;;;;5121402;28;20477;-47
2021/12/13 12:37:54;;;;;;;14.32;3.22;;;11.50;75.00;;;;;;5122424;28;20371;-46
2021/12/13 12:40:35;;;;;;;9.25;2.72;;;11.40;74.90;;;;;;5122630;28;20024;-51
2021/12/13 12:43:08;;;;;;;9.65;2.72;;;11.40;75.00;;;;;;5122009;28;20076;-46
2021/12/13 12:45:36;;;;;;;12.93;3.72;;;11.30;75.00;;;;;;5122251;28;20023;-47
2021/12/13 12:48:02;;;;;;;14.30;3.35;;;11.40;75.20;;;;;;5122188;27;20099;-47
2021/12/13 12:50:33;;;;;;;10.05;2.80;;;11.40;75.10;;;;;;5122169;28;20062;-48
2021/12/13 12:53:23;;;;;;;13.38;3.50;;;11.40;74.80;;;;;;5122183;28;20093;-47
2021/12/13 12:56:08;;;;;;;9.85;3.33;;;11.30;74.70;;;;;;5122079;28;20053;-46
2021/12/13 12:59:09;;;;;;;12.85;3.28;;;11.40;74.60;;;;;;5122403;28;20378;-46
2021/12/13 13:01:41;;;;;;;7.40;2.72;;;11.30;74.80;;;;;;5122096;28;20038;-47
2021/12/13 13:04:12;;;;;;;12.38;3.13;;;11.30;74.80;;;;;;5122319;28;20020;-46
2021/12/13 13:06:56;;;;;;;8.93;2.88;;;11.30;74.70;;;;;;5121802;28;20073;-47
2021/12/13 13:09:39;;;;;;;13.85;3.08;;;11.40;75.00;;;;;;5121868;28;20559;-47
2021/12/13 13:12:05;;;;;;;10.20;3.17;;;11.40;74.70;;;;;;5121763;28;20093;-47
2021/12/13 13:14:32;;;;;;;11.85;2.70;;;11.40;74.80;;;;;;5121534;28;20016;-48
2021/12/13 13:17:03;;;;;;;11.93;2.97;;;11.40;74.70;;;;;;5121424;28;20028;-46
2021/12/13 13:19:39;;;;;;;9.52;2.65;;;11.40;74.90;;;;;;5121224;28;20040;-47
2021/12/13 13:22:13;;;;;;;11.90;2.95;;;11.40;75.00;;;;;;5121755;27;20020;-51
2021/12/13 13:24:40;;;;;;;;;;;11.40;75.00;;;;;;5120460;28;20470;-51
2021/12/13 13:27:07;;;;;;;13.90;2.65;;;11.50;75.30;;;;;;5121411;28;19903;-47
2021/12/13 13:29:35;;;;;;;9.68;3.17;;;11.50;75.10;;;;;;5121607;28;20055;-46
2021/12/13 13:32:01;;;;;;;14.18;3.40;;;11.50;75.20;;;;;;5121346;28;20099;-46